createdAt,value
2022-10-06T00:00:54.602Z,100.00
2022-10-06T00:02:56.714Z,100.00
2022-10-06T00:04:58.501Z,100.00
2022-10-06T00:07:00.571Z,100.00
2022-10-06T00:09:02.580Z,100.00
2022-10-06T00:11:05.077Z,100.00
2022-10-06T00:13:07.235Z,100.00
2022-10-06T00:15:10.589Z,100.00
2022-10-06T00:17:12.275Z,100.00
2022-10-06T00:19:14.642Z,100.00
2022-10-06T00:21:16.885Z,100.00
2022-10-06T00:23:18.568Z,100.00
2022-10-06T00:25:23.233Z,100.00
2022-10-06T00:27:25.146Z,100.00
2022-10-06T00:29:26.851Z,100.00
2022-10-06T00:31:28.868Z,100.00
2022-10-06T00:33:30.717Z,100.00
2022-10-06T00:35:34.292Z,100.00
2022-10-06T00:37:37.689Z,100.00
2022-10-06T00:39:39.623Z,100.00
2022-10-06T00:41:41.363Z,100.00
2022-10-06T00:43:54.950Z,100.00
2022-10-06T00:45:56.977Z,100.00
2022-10-06T00:48:02.744Z,100.00
2022-10-06T00:50:04.988Z,100.00
2022-10-06T00:52:10.029Z,100.00
2022-10-06T00:54:13.085Z,100.00
2022-10-06T00:56:15.123Z,100.00
2022-10-06T00:58:17.176Z,100.00
2022-10-06T01:00:19.711Z,100.00
2022-10-06T01:02:33.731Z,100.00
2022-10-06T01:04:37.203Z,100.00
2022-10-06T01:06:48.497Z,100.00
2022-10-06T01:08:50.522Z,100.00
2022-10-06T01:10:52.405Z,100.00
2022-10-06T01:12:54.640Z,100.00
2022-10-06T01:14:56.783Z,100.00
2022-10-06T01:17:07.679Z,100.00
2022-10-06T01:19:32.394Z,100.00
2022-10-06T01:21:44.248Z,100.00
2022-10-06T01:23:46.516Z,100.00
2022-10-06T01:25:48.480Z,100.00
2022-10-06T01:27:53.963Z,100.00
2022-10-06T01:29:57.327Z,100.00
2022-10-06T01:31:59.737Z,100.00
2022-10-06T01:34:01.669Z,100.00
2022-10-06T01:36:03.776Z,100.00
2022-10-06T01:38:05.476Z,100.00
2022-10-06T01:40:07.703Z,100.00
2022-10-06T01:42:10.431Z,100.00
2022-10-06T01:44:12.105Z,100.00
2022-10-06T01:46:14.065Z,100.00
2022-10-06T01:48:15.913Z,100.00
2022-10-06T01:50:17.687Z,100.00
2022-10-06T01:52:19.817Z,100.00
2022-10-06T01:54:21.609Z,100.00
2022-10-06T01:56:23.376Z,100.00
2022-10-06T01:58:25.430Z,100.00
2022-10-06T02:00:27.423Z,100.00
2022-10-06T02:02:31.090Z,100.00
2022-10-06T02:04:32.833Z,100.00
2022-10-06T02:06:34.857Z,100.00
2022-10-06T02:08:36.602Z,100.00
2022-10-06T02:10:38.363Z,100.00
2022-10-06T02:12:40.419Z,100.00
2022-10-06T02:14:42.564Z,100.00
2022-10-06T02:16:45.185Z,100.00
2022-10-06T02:18:47.546Z,100.00
2022-10-06T02:20:49.297Z,100.00
2022-10-06T02:22:51.043Z,100.00
2022-10-06T02:24:52.834Z,100.00
2022-10-06T02:26:54.668Z,100.00
2022-10-06T02:28:56.479Z,100.00
2022-10-06T02:31:03.142Z,100.00
2022-10-06T02:33:05.185Z,100.00
2022-10-06T02:35:07.282Z,100.00
2022-10-06T02:37:09.070Z,100.00
2022-10-06T02:39:10.749Z,100.00
2022-10-06T02:41:12.522Z,100.00
2022-10-06T02:43:14.494Z,100.00
2022-10-06T02:45:16.199Z,100.00
2022-10-06T02:47:19.094Z,100.00
2022-10-06T02:49:20.933Z,100.00
2022-10-06T02:51:23.025Z,100.00
2022-10-06T02:53:25.592Z,100.00
2022-10-06T02:55:27.350Z,100.00
2022-10-06T02:57:29.129Z,100.00
2022-10-06T02:59:30.976Z,100.00
2022-10-06T03:01:33.252Z,100.00
2022-10-06T03:03:36.408Z,100.00
2022-10-06T03:05:38.177Z,100.00
2022-10-06T03:07:40.081Z,100.00
2022-10-06T03:09:42.512Z,100.00
2022-10-06T03:11:44.820Z,100.00
2022-10-06T03:13:47.483Z,100.00
2022-10-06T03:15:49.186Z,100.00
2022-10-06T03:17:51.126Z,100.00
2022-10-06T03:19:53.080Z,100.00
2022-10-06T03:21:54.793Z,100.00
2022-10-06T03:23:57.492Z,100.00
2022-10-06T03:25:59.351Z,100.00
2022-10-06T03:28:01.066Z,100.00
2022-10-06T03:30:03.229Z,100.00
2022-10-06T03:32:05.285Z,100.00
2022-10-06T03:34:07.068Z,100.00
2022-10-06T03:36:13.313Z,100.00
2022-10-06T03:38:15.148Z,100.00
2022-10-06T03:40:20.543Z,100.00
2022-10-06T03:42:22.436Z,100.00
2022-10-06T03:44:24.511Z,100.00
2022-10-06T03:46:28.614Z,100.00
2022-10-06T03:48:32.966Z,100.00
2022-10-06T03:50:35.028Z,100.00
2022-10-06T03:52:36.698Z,100.00
2022-10-06T03:54:38.445Z,100.00
2022-10-06T03:56:41.922Z,100.00
2022-10-06T03:58:46.192Z,100.00
2022-10-06T04:00:47.938Z,100.00
2022-10-06T04:02:50.594Z,100.00
2022-10-06T04:04:52.315Z,100.00
2022-10-06T04:06:54.060Z,100.00
2022-10-06T04:08:56.789Z,100.00
2022-10-06T04:11:09.957Z,100.00
2022-10-06T04:13:11.794Z,100.00
2022-10-06T04:15:13.656Z,100.00
2022-10-06T04:17:15.373Z,100.00
2022-10-06T04:19:18.080Z,100.00
2022-10-06T04:21:20.306Z,100.00
2022-10-06T04:23:21.995Z,100.00
2022-10-06T04:25:24.278Z,100.00
2022-10-06T04:27:26.162Z,100.00
2022-10-06T04:29:27.871Z,100.00
2022-10-06T04:31:33.100Z,100.00
2022-10-06T04:33:34.976Z,100.00
2022-10-06T04:35:36.669Z,100.00
2022-10-06T04:37:38.846Z,100.00
2022-10-06T04:39:40.671Z,100.00
2022-10-06T04:41:42.782Z,100.00
2022-10-06T04:43:48.791Z,100.00
2022-10-06T04:46:06.359Z,100.00
2022-10-06T04:48:14.803Z,100.00
2022-10-06T04:50:16.627Z,100.00
2022-10-06T04:52:18.609Z,100.00
2022-10-06T04:54:20.313Z,100.00
2022-10-06T04:56:31.245Z,100.00
2022-10-06T04:58:44.745Z,100.00
2022-10-06T05:00:48.917Z,100.00
2022-10-06T05:02:53.250Z,100.00
2022-10-06T05:04:55.154Z,100.00
2022-10-06T05:06:56.862Z,100.00
2022-10-06T05:09:10.419Z,100.00
2022-10-06T05:11:15.116Z,100.00
2022-10-06T05:13:19.424Z,100.00
2022-10-06T05:15:21.195Z,100.00
2022-10-06T05:17:23.006Z,100.00
2022-10-06T05:19:24.800Z,100.00
2022-10-06T05:21:29.487Z,100.00
2022-10-06T05:23:34.572Z,100.00
2022-10-06T05:25:36.292Z,100.00
2022-10-06T05:27:38.041Z,100.00
2022-10-06T05:29:39.962Z,100.00
2022-10-06T05:31:41.729Z,100.00
2022-10-06T05:33:43.490Z,100.00
2022-10-06T05:36:02.325Z,100.00
2022-10-06T05:38:04.012Z,100.00
2022-10-06T05:40:06.146Z,100.00
2022-10-06T05:42:08.099Z,100.00
2022-10-06T05:44:09.805Z,100.00
2022-10-06T05:46:17.939Z,100.00
2022-10-06T05:48:19.963Z,100.00
2022-10-06T05:50:21.639Z,100.00
2022-10-06T05:52:23.448Z,100.00
2022-10-06T05:54:25.370Z,100.00
2022-10-06T05:56:32.097Z,100.00
2022-10-06T05:58:35.862Z,100.00
2022-10-06T06:00:37.927Z,100.00
2022-10-06T06:02:39.698Z,100.00
2022-10-06T06:04:41.642Z,100.00
2022-10-06T06:06:45.501Z,100.00
2022-10-06T06:08:48.774Z,100.00
2022-10-06T06:10:50.519Z,100.00
2022-10-06T06:12:52.299Z,100.00
2022-10-06T06:14:53.985Z,100.00
2022-10-06T06:16:55.761Z,100.00
2022-10-06T06:18:58.116Z,100.00
2022-10-06T06:21:01.968Z,100.00
2022-10-06T06:23:03.763Z,100.00
2022-10-06T06:25:06.052Z,100.00
2022-10-06T06:27:07.740Z,100.00
2022-10-06T06:29:09.650Z,100.00
2022-10-06T06:31:19.717Z,100.00
2022-10-06T06:33:21.887Z,100.00
2022-10-06T06:35:23.702Z,100.00
2022-10-06T06:37:25.461Z,100.00
2022-10-06T06:39:27.134Z,100.00
2022-10-06T06:41:35.380Z,100.00
2022-10-06T06:43:37.435Z,100.00
2022-10-06T06:45:39.176Z,100.00
2022-10-06T06:47:41.118Z,100.00
2022-10-06T06:49:42.853Z,100.00
2022-10-06T06:51:45.632Z,100.00
2022-10-06T06:53:47.423Z,100.00
2022-10-06T06:55:50.370Z,100.00
2022-10-06T06:57:52.429Z,100.00
2022-10-06T06:59:54.266Z,100.00
2022-10-06T07:01:56.114Z,100.00
2022-10-06T07:03:59.067Z,100.00
2022-10-06T07:06:09.490Z,100.00
2022-10-06T07:08:11.676Z,100.00
2022-10-06T07:10:13.585Z,100.00
2022-10-06T07:12:15.491Z,100.00
2022-10-06T07:14:17.842Z,100.00
2022-10-06T07:16:20.787Z,100.00
2022-10-06T07:18:22.512Z,100.00
2022-10-06T07:20:24.546Z,100.00
2022-10-06T07:22:28.476Z,100.00
2022-10-06T07:24:30.338Z,99.67
2022-10-06T07:26:32.722Z,99.96
2022-10-06T07:28:34.485Z,98.13
2022-10-06T07:30:40.831Z,98.38
2022-10-06T07:32:43.107Z,100.00
2022-10-06T07:34:44.847Z,100.00
2022-10-06T07:36:46.580Z,100.00
2022-10-06T07:38:48.973Z,100.00
2022-10-06T07:43:20.682Z,100.00
2022-10-06T07:45:28.341Z,100.00
2022-10-06T07:47:30.047Z,100.00
2022-10-06T07:49:31.729Z,100.00
2022-10-06T07:51:33.727Z,100.00
2022-10-06T07:53:35.418Z,100.00
2022-10-06T07:55:38.330Z,100.00
2022-10-06T07:57:40.315Z,100.00
2022-10-06T07:59:42.089Z,100.00
2022-10-06T08:01:43.882Z,100.00
2022-10-06T08:03:47.539Z,100.00
2022-10-06T08:05:50.298Z,100.00
2022-10-06T08:07:52.481Z,100.00
2022-10-06T08:09:54.429Z,100.00
2022-10-06T08:11:56.417Z,100.00
2022-10-06T08:13:58.401Z,99.76
2022-10-06T08:16:07.378Z,100.00
2022-10-06T08:18:33.665Z,99.14
2022-10-06T08:20:30.882Z,98.32
2022-10-06T08:22:33.191Z,98.97
2022-10-06T08:25:01.126Z,99.36
2022-10-06T08:26:56.574Z,98.75
2022-10-06T08:28:58.687Z,99.71
2022-10-06T08:31:07.574Z,99.85
2022-10-06T08:33:09.369Z,100.00
2022-10-06T08:35:11.464Z,99.06
2022-10-06T08:37:20.120Z,99.83
2022-10-06T08:39:22.263Z,100.00
2022-10-06T08:41:28.362Z,99.62
2022-10-06T08:43:32.367Z,100.00
2022-10-06T08:45:40.313Z,99.83
2022-10-06T08:47:53.741Z,97.92
2022-10-06T08:49:56.142Z,99.15
2022-10-06T08:52:01.127Z,98.87
2022-10-06T08:54:10.518Z,99.27
2022-10-06T08:56:19.416Z,98.69
2022-10-06T08:58:34.721Z,100.00
2022-10-06T09:00:38.013Z,98.78
2022-10-06T09:02:46.030Z,98.52
2022-10-06T09:04:47.836Z,100.00
2022-10-06T09:07:13.416Z,100.00
2022-10-06T09:09:21.201Z,100.00
2022-10-06T09:11:59.776Z,100.00
2022-10-06T09:14:04.038Z,100.00
2022-10-06T09:16:13.158Z,100.00
2022-10-06T09:18:29.158Z,100.00
2022-10-06T09:20:44.025Z,100.00
2022-10-06T09:22:49.033Z,100.00
2022-10-06T09:24:56.925Z,100.00
2022-10-06T09:26:58.900Z,100.00
2022-10-06T09:29:00.649Z,100.00
2022-10-06T09:31:02.556Z,100.00
2022-10-06T09:33:06.727Z,99.69
2022-10-06T09:35:20.659Z,100.00
2022-10-06T09:37:22.770Z,100.00
2022-10-06T09:39:24.627Z,100.00
2022-10-06T09:41:40.374Z,100.00
2022-10-06T09:43:52.609Z,100.00
2022-10-06T09:45:56.192Z,100.00
2022-10-06T09:48:20.952Z,100.00
2022-10-06T09:50:28.162Z,100.00
2022-10-06T09:52:30.084Z,100.00
2022-10-06T09:54:32.467Z,100.00
2022-10-06T09:56:34.224Z,100.00
2022-10-06T09:58:36.326Z,100.00
2022-10-06T10:00:46.120Z,99.58
2022-10-06T10:02:47.999Z,100.00
2022-10-06T10:04:55.603Z,98.13
2022-10-06T10:07:16.486Z,98.00
2022-10-06T10:09:20.695Z,98.14
2022-10-06T10:11:24.064Z,97.85
2022-10-06T10:13:26.966Z,98.03
2022-10-06T10:15:48.998Z,96.46
2022-10-06T10:18:11.970Z,96.38
2022-10-06T10:20:26.711Z,97.77
2022-10-06T10:22:38.716Z,97.31
2022-10-06T10:25:14.198Z,94.86
2022-10-06T10:27:26.256Z,95.81
2022-10-06T10:30:00.086Z,94.20
2022-10-06T10:32:10.121Z,91.37
2022-10-06T10:34:36.762Z,90.80
2022-10-06T10:36:44.844Z,89.12
2022-10-06T10:38:48.525Z,89.50
2022-10-06T10:41:02.174Z,90.26
2022-10-06T10:43:22.558Z,91.19
2022-10-06T10:45:35.554Z,85.32
2022-10-06T10:47:41.628Z,81.75
2022-10-06T10:49:51.101Z,82.28
2022-10-06T10:51:58.819Z,82.83
2022-10-06T10:54:16.732Z,83.52
2022-10-06T10:56:21.925Z,83.03
2022-10-06T10:58:36.934Z,82.97
2022-10-06T11:00:43.064Z,83.28
2022-10-06T11:02:44.871Z,82.92
2022-10-06T11:04:56.882Z,84.18
2022-10-06T11:07:20.080Z,82.91
2022-10-06T11:09:46.098Z,80.33
2022-10-06T11:11:57.138Z,80.52
2022-10-06T11:14:01.565Z,79.78
2022-10-06T11:16:18.721Z,81.48
2022-10-06T11:18:43.992Z,76.35
2022-10-06T11:20:53.333Z,78.80
2022-10-06T11:23:20.992Z,76.41
2022-10-06T11:25:37.519Z,77.73
2022-10-06T11:27:57.826Z,77.84
2022-10-06T11:30:06.879Z,75.71
2022-10-06T11:32:14.563Z,76.90
2022-10-06T11:34:16.278Z,77.20
2022-10-06T11:36:44.083Z,74.65
2022-10-06T11:38:54.994Z,74.85
2022-10-06T11:41:03.365Z,77.12
2022-10-06T11:43:12.966Z,77.21
2022-10-06T11:45:25.377Z,78.30
2022-10-06T11:47:37.716Z,77.22
2022-10-06T11:49:53.710Z,75.84
2022-10-06T11:52:15.363Z,75.14
2022-10-06T11:54:40.348Z,76.30
2022-10-06T11:56:42.054Z,75.24
2022-10-06T11:58:56.416Z,73.53
2022-10-06T12:00:58.159Z,73.72
2022-10-06T12:03:30.669Z,75.37
2022-10-06T12:10:27.925Z,74.55
2022-10-06T12:12:29.784Z,74.54
2022-10-06T12:16:32.301Z,74.57
2022-10-06T12:17:23.169Z,75.04
2022-10-06T12:19:33.710Z,74.12
2022-10-06T12:21:41.447Z,73.33
2022-10-06T12:23:55.673Z,71.53
2022-10-06T12:26:12.699Z,70.78
2022-10-06T12:28:28.116Z,70.84
2022-10-06T12:30:57.946Z,70.18
2022-10-06T12:33:00.949Z,71.47
2022-10-06T12:35:08.335Z,68.38
2022-10-06T12:37:31.662Z,69.16
2022-10-06T12:39:33.522Z,69.69
2022-10-06T12:41:54.300Z,70.00
2022-10-06T12:44:03.630Z,72.07
2022-10-06T12:46:18.777Z,71.63
2022-10-06T12:48:23.149Z,70.49
2022-10-06T12:50:27.164Z,70.68
2022-10-06T12:52:46.880Z,70.29
2022-10-06T12:55:11.596Z,70.29
2022-10-06T12:57:20.539Z,69.05
2022-10-06T12:59:33.793Z,68.19
2022-10-06T13:01:35.583Z,66.68
2022-10-06T13:03:38.636Z,65.03
2022-10-06T13:05:40.503Z,66.16
2022-10-06T13:08:01.872Z,67.01
2022-10-06T13:10:16.291Z,66.54
2022-10-06T13:12:20.721Z,64.78
2022-10-06T13:14:22.406Z,64.02
2022-10-06T13:16:36.893Z,63.62
2022-10-06T13:18:38.665Z,65.80
2022-10-06T13:20:53.630Z,62.76
2022-10-06T13:23:14.711Z,63.20
2022-10-06T13:25:16.570Z,64.09
2022-10-06T13:27:18.349Z,64.34
2022-10-06T13:29:25.286Z,60.87
2022-10-06T13:31:32.806Z,61.21
2022-10-06T13:33:41.383Z,62.03
2022-10-06T13:35:43.419Z,60.58
2022-10-06T13:37:45.370Z,60.43
2022-10-06T13:39:47.074Z,60.08
2022-10-06T13:42:05.279Z,61.49
2022-10-06T13:44:12.814Z,59.84
2022-10-06T13:46:18.673Z,61.01
2022-10-06T13:48:21.858Z,60.64
2022-10-06T13:50:23.837Z,60.10
2022-10-06T13:52:28.837Z,59.69
2022-10-06T13:54:53.752Z,60.20
2022-10-06T13:56:56.089Z,59.92
2022-10-06T13:58:57.802Z,61.23
2022-10-06T14:01:01.612Z,60.48
2022-10-06T14:03:06.595Z,59.24
2022-10-06T14:05:25.201Z,59.73
2022-10-06T14:07:26.959Z,58.91
2022-10-06T14:09:33.991Z,59.55
2022-10-06T14:11:35.780Z,59.67
2022-10-06T14:14:02.244Z,58.90
2022-10-06T14:16:07.492Z,57.59
2022-10-06T14:18:19.394Z,58.25
2022-10-06T14:20:44.524Z,58.08
2022-10-06T14:22:46.683Z,57.64
2022-10-06T14:24:51.748Z,57.85
2022-10-06T14:26:53.459Z,57.71
2022-10-06T14:28:56.235Z,57.79
2022-10-06T14:30:58.989Z,59.00
2022-10-06T14:33:00.724Z,59.06
2022-10-06T14:35:02.783Z,58.61
2022-10-06T14:37:04.496Z,59.44
2022-10-06T14:39:07.604Z,59.98
2022-10-06T14:41:09.812Z,59.37
2022-10-06T14:43:12.022Z,59.82
2022-10-06T14:45:13.803Z,60.46
2022-10-06T14:47:15.766Z,60.94
2022-10-06T14:49:17.495Z,62.04
2022-10-06T14:51:19.885Z,61.78
2022-10-06T14:53:21.782Z,62.32
2022-10-06T14:55:23.475Z,61.84
2022-10-06T14:57:25.256Z,62.13
2022-10-06T14:59:27.077Z,62.67
2022-10-06T15:01:28.777Z,62.71
2022-10-06T15:03:30.644Z,62.61
2022-10-06T15:05:32.683Z,63.78
2022-10-06T15:07:34.422Z,63.77
2022-10-06T15:09:36.225Z,64.01
2022-10-06T15:11:38.748Z,64.10
2022-10-06T15:13:40.627Z,64.19
2022-10-06T15:15:42.389Z,65.02
2022-10-06T15:17:44.317Z,66.40
2022-10-06T15:19:46.056Z,65.12
2022-10-06T15:21:47.926Z,66.77
2022-10-06T15:23:56.404Z,66.68
2022-10-06T15:25:58.392Z,67.46
2022-10-06T15:28:00.286Z,66.09
2022-10-06T15:30:02.125Z,66.06
2022-10-06T15:32:05.173Z,66.76
2022-10-06T15:34:09.085Z,67.14
2022-10-06T15:36:22.436Z,66.84
2022-10-06T15:38:24.138Z,67.03
2022-10-06T15:40:25.929Z,67.79
2022-10-06T15:42:27.847Z,68.89
2022-10-06T15:44:32.065Z,69.58
2022-10-06T15:46:38.926Z,68.22
2022-10-06T15:48:41.812Z,68.94
2022-10-06T15:50:43.531Z,69.18
2022-10-06T15:52:45.307Z,70.66
2022-10-06T15:54:46.992Z,69.77
2022-10-06T15:56:50.584Z,70.12
2022-10-06T15:58:52.151Z,70.96
2022-10-06T16:00:54.031Z,71.38
2022-10-06T16:02:55.830Z,72.78
2022-10-06T16:04:57.561Z,71.28
2022-10-06T16:06:59.516Z,72.26
2022-10-06T16:09:01.234Z,72.04
2022-10-06T16:11:03.375Z,73.12
2022-10-06T16:13:05.092Z,72.80
2022-10-06T16:15:07.365Z,73.92
2022-10-06T16:17:09.982Z,74.85
2022-10-06T16:19:11.912Z,75.66
2022-10-06T16:21:13.581Z,76.14
2022-10-06T16:23:15.328Z,78.67
2022-10-06T16:25:17.198Z,77.76
2022-10-06T16:27:18.923Z,79.32
2022-10-06T16:29:21.956Z,78.49
2022-10-06T16:31:24.113Z,79.15
2022-10-06T16:33:25.902Z,78.87
2022-10-06T16:35:27.642Z,79.53
2022-10-06T16:37:29.337Z,80.74
2022-10-06T16:39:31.134Z,80.37
2022-10-06T16:41:33.511Z,83.08
2022-10-06T16:43:40.007Z,88.28
2022-10-06T16:45:43.094Z,88.77
2022-10-06T16:47:44.765Z,92.14
2022-10-06T16:49:46.608Z,89.56
2022-10-06T16:51:48.384Z,89.67
2022-10-06T16:53:52.503Z,91.04
2022-10-06T16:55:54.499Z,90.45
2022-10-06T16:57:56.214Z,92.19
2022-10-06T16:59:57.929Z,94.12
2022-10-06T17:01:59.675Z,96.04
2022-10-06T17:04:07.874Z,95.98
2022-10-06T17:06:12.442Z,97.56
2022-10-06T17:08:14.285Z,99.48
2022-10-06T17:10:20.688Z,100.00
2022-10-06T17:12:23.009Z,100.00
2022-10-06T17:14:25.562Z,100.00
2022-10-06T17:16:30.259Z,100.00
2022-10-06T17:18:32.604Z,100.00
2022-10-06T17:20:34.374Z,100.00
2022-10-06T17:22:36.205Z,100.00
2022-10-06T17:24:37.994Z,100.00
2022-10-06T17:26:41.799Z,100.00
2022-10-06T17:28:53.515Z,100.00
2022-10-06T17:30:55.393Z,100.00
2022-10-06T17:32:57.140Z,100.00
2022-10-06T17:34:58.887Z,100.00
2022-10-06T17:37:01.836Z,100.00
2022-10-06T17:39:05.574Z,100.00
2022-10-06T17:41:27.379Z,100.00
2022-10-06T17:43:29.091Z,100.00
2022-10-06T17:45:30.901Z,100.00
2022-10-06T17:47:32.621Z,100.00
2022-10-06T17:49:35.864Z,100.00
2022-10-06T17:51:40.172Z,100.00
2022-10-06T17:53:52.971Z,100.00
2022-10-06T17:55:54.733Z,100.00
2022-10-06T17:57:56.565Z,100.00
2022-10-06T17:59:58.297Z,100.00
2022-10-06T18:02:02.246Z,100.00
2022-10-06T18:04:06.055Z,100.00
2022-10-06T18:06:10.234Z,100.00
2022-10-06T18:08:12.489Z,100.00
2022-10-06T18:10:14.416Z,100.00
2022-10-06T18:12:16.114Z,100.00
2022-10-06T18:14:19.971Z,100.00
2022-10-06T18:16:23.757Z,100.00
2022-10-06T18:18:25.490Z,100.00
2022-10-06T18:20:27.242Z,100.00
2022-10-06T18:22:29.016Z,100.00
2022-10-06T18:24:31.758Z,100.00
2022-10-06T18:26:33.478Z,100.00
2022-10-06T18:28:35.718Z,100.00
2022-10-06T18:30:37.541Z,100.00
2022-10-06T18:36:10.080Z,100.00
2022-10-06T18:37:22.921Z,100.00
2022-10-06T18:39:24.695Z,100.00
2022-10-06T18:41:27.883Z,100.00
2022-10-06T18:43:30.501Z,100.00
2022-10-06T18:45:36.791Z,100.00
2022-10-06T18:47:41.155Z,100.00
2022-10-06T18:49:42.973Z,100.00
2022-10-06T18:51:52.642Z,100.00
2022-10-06T18:53:59.745Z,100.00
2022-10-06T18:56:01.444Z,100.00
2022-10-06T18:58:03.647Z,100.00
2022-10-06T19:00:05.941Z,100.00
2022-10-06T19:02:07.794Z,100.00
2022-10-06T19:04:11.124Z,100.00
2022-10-06T19:06:12.961Z,100.00
2022-10-06T19:08:14.664Z,100.00
2022-10-06T19:10:16.446Z,100.00
2022-10-06T19:12:18.314Z,100.00
2022-10-06T19:14:24.330Z,100.00
2022-10-06T19:16:26.056Z,100.00
2022-10-06T19:18:35.513Z,100.00
2022-10-06T19:20:37.284Z,100.00
2022-10-06T19:22:39.073Z,100.00
2022-10-06T19:24:43.811Z,100.00
2022-10-06T19:26:47.367Z,100.00
2022-10-06T19:28:49.097Z,100.00
2022-10-06T19:30:57.964Z,100.00
2022-10-06T19:32:59.774Z,100.00
2022-10-06T19:35:04.232Z,100.00
2022-10-06T19:37:09.643Z,100.00
2022-10-06T19:39:12.469Z,100.00
2022-10-06T19:41:14.272Z,100.00
2022-10-06T19:43:16.752Z,100.00
2022-10-06T19:45:18.579Z,100.00
2022-10-06T19:47:20.315Z,100.00
2022-10-06T19:49:22.953Z,100.00
2022-10-06T19:51:25.237Z,100.00
2022-10-06T19:53:26.971Z,100.00
2022-10-06T19:55:28.985Z,100.00
2022-10-06T19:57:31.751Z,100.00
2022-10-06T19:59:33.562Z,100.00
2022-10-06T20:01:35.397Z,100.00
2022-10-06T20:03:40.844Z,100.00
2022-10-06T20:05:42.823Z,100.00
2022-10-06T20:07:47.213Z,100.00
2022-10-06T20:09:49.193Z,100.00
2022-10-06T20:11:51.695Z,100.00
2022-10-06T20:13:53.562Z,100.00
2022-10-06T20:15:55.381Z,100.00
2022-10-06T20:17:57.082Z,100.00
2022-10-06T20:20:03.087Z,100.00
2022-10-06T20:22:04.811Z,100.00
2022-10-06T20:24:11.005Z,100.00
2022-10-06T20:26:14.819Z,100.00
2022-10-06T20:28:16.576Z,100.00
2022-10-06T20:30:18.425Z,100.00
2022-10-06T20:32:20.286Z,100.00
2022-10-06T20:34:24.825Z,100.00
2022-10-06T20:36:28.252Z,100.00
2022-10-06T20:38:30.286Z,100.00
2022-10-06T20:40:32.111Z,100.00
2022-10-06T20:42:33.885Z,100.00
2022-10-06T20:44:35.741Z,100.00
2022-10-06T20:46:39.099Z,100.00
2022-10-06T20:48:40.869Z,100.00
2022-10-06T20:50:42.713Z,100.00
2022-10-06T20:52:44.492Z,100.00
2022-10-06T20:54:46.174Z,100.00
2022-10-06T20:56:53.325Z,100.00
2022-10-06T20:58:55.200Z,100.00
2022-10-06T21:01:06.309Z,100.00
2022-10-06T21:03:08.256Z,100.00
2022-10-06T21:05:10.062Z,100.00
2022-10-06T21:07:11.887Z,100.00
2022-10-06T21:09:16.549Z,100.00
2022-10-06T21:11:20.698Z,100.00
2022-10-06T21:13:22.647Z,100.00
2022-10-06T21:15:24.476Z,100.00
2022-10-06T21:17:26.270Z,100.00
2022-10-06T21:19:28.018Z,100.00
2022-10-06T21:21:30.292Z,100.00
2022-10-06T21:23:41.082Z,100.00
2022-10-06T21:25:42.845Z,100.00
2022-10-06T21:27:44.896Z,100.00
2022-10-06T21:29:47.010Z,100.00
2022-10-06T21:31:48.767Z,100.00
2022-10-06T21:33:51.991Z,100.00
2022-10-06T21:36:04.832Z,100.00
2022-10-06T21:38:06.652Z,100.00
2022-10-06T21:40:08.916Z,100.00
2022-10-06T21:42:10.755Z,100.00
2022-10-06T21:44:15.049Z,100.00
2022-10-06T21:46:27.963Z,100.00
2022-10-06T21:48:31.033Z,100.00
2022-10-06T21:50:32.844Z,100.00
2022-10-06T21:52:34.597Z,100.00
2022-10-06T21:54:36.459Z,100.00
2022-10-06T21:56:38.580Z,100.00
2022-10-06T21:58:40.500Z,100.00
2022-10-06T22:00:42.308Z,100.00
2022-10-06T22:02:44.225Z,100.00
2022-10-06T22:04:46.122Z,100.00
2022-10-06T22:06:48.113Z,100.00
2022-10-06T22:08:50.909Z,100.00
2022-10-06T22:10:52.806Z,100.00
2022-10-06T22:12:54.705Z,100.00
2022-10-06T22:14:56.516Z,100.00
2022-10-06T22:16:58.378Z,100.00
2022-10-06T22:19:02.397Z,100.00
2022-10-06T22:21:22.097Z,100.00
2022-10-06T22:23:24.084Z,100.00
2022-10-06T22:25:25.859Z,100.00
2022-10-06T22:27:27.617Z,100.00
2022-10-06T22:29:29.485Z,100.00
2022-10-06T22:31:31.295Z,100.00
2022-10-06T22:35:52.147Z,100.00
2022-10-06T22:37:53.902Z,100.00
2022-10-06T22:39:55.669Z,100.00
2022-10-06T22:41:57.583Z,100.00
2022-10-06T22:43:59.634Z,100.00
2022-10-06T22:46:02.171Z,100.00
2022-10-06T22:48:07.744Z,100.00
2022-10-06T22:50:09.718Z,100.00
2022-10-06T22:52:11.458Z,100.00
2022-10-06T22:54:17.596Z,100.00
2022-10-06T22:56:19.817Z,100.00
2022-10-06T22:58:22.168Z,100.00
2022-10-06T23:00:24.325Z,100.00
2022-10-06T23:02:26.163Z,100.00
2022-10-06T23:04:28.034Z,100.00
2022-10-06T23:06:29.918Z,100.00
2022-10-06T23:08:35.243Z,100.00
2022-10-06T23:10:37.318Z,100.00
2022-10-06T23:12:39.241Z,100.00
2022-10-06T23:14:41.030Z,100.00
2022-10-06T23:16:42.840Z,100.00
2022-10-06T23:18:45.390Z,100.00
2022-10-06T23:20:47.163Z,100.00
2022-10-06T23:22:48.954Z,100.00
2022-10-06T23:24:51.125Z,100.00
2022-10-06T23:26:52.889Z,100.00
2022-10-06T23:28:56.758Z,100.00
2022-10-06T23:30:58.972Z,100.00
2022-10-06T23:33:00.759Z,100.00
2022-10-06T23:35:02.705Z,100.00
2022-10-06T23:37:04.673Z,100.00
2022-10-06T23:39:06.452Z,100.00
2022-10-06T23:41:08.527Z,100.00
2022-10-06T23:43:10.514Z,100.00
2022-10-06T23:45:12.269Z,100.00
2022-10-06T23:47:14.104Z,100.00
2022-10-06T23:49:15.966Z,100.00
2022-10-06T23:51:18.096Z,100.00
2022-10-06T23:53:19.917Z,100.00
2022-10-06T23:55:21.762Z,100.00
2022-10-06T23:57:23.526Z,100.00
2022-10-06T23:59:25.562Z,100.00
